Time;durP1;ratioP1;P1;durP2;ratioP2;P2;SDS_P1;SDS_P2;PMS_P1;PMS_P2;Temp;Humidity;BMP_temperature;BMP_pressure;BME280_temperature;BME280_humidity;BME280_pressure;Samples;Min_cycle;Max_cycle;Signal;HPM_P1;HPM_P2
2022/03/02 00:01:34;;;;;;;20.73;16.30;;;2.20;71.30;;;;;;4944324;29;20210;-85
2022/03/02 00:04:01;;;;;;;22.98;15.55;;;2.20;70.70;;;;;;4944247;29;20250;-85
2022/03/02 00:06:27;;;;;;;17.98;15.82;;;2.30;70.40;;;;;;4947963;29;20198;-86
2022/03/02 00:08:55;;;;;;;23.10;18.55;;;2.30;70.20;;;;;;4950586;28;20218;-82
2022/03/02 00:11:22;;;;;;;21.63;16.33;;;2.40;70.90;;;;;;4960259;28;20179;-82
2022/03/02 00:13:49;;;;;;;20.95;14.95;;;2.40;69.90;;;;;;4928777;29;20223;-84
2022/03/02 00:16:17;;;;;;;21.33;16.40;;;2.40;70.10;;;;;;4932125;29;20225;-84
2022/03/02 00:18:44;;;;;;;18.33;15.88;;;2.10;70.20;;;;;;4945008;29;20219;-84
2022/03/02 00:21:11;;;;;;;22.52;17.13;;;2.00;70.80;;;;;;4944645;29;20203;-84
2022/03/02 00:23:38;;;;;;;24.60;18.13;;;1.90;71.70;;;;;;4944990;29;20207;-85
2022/03/02 00:26:06;;;;;;;20.15;17.77;;;2.00;72.00;;;;;;4944399;29;20213;-84
2022/03/02 00:28:33;;;;;;;24.30;17.65;;;2.00;72.00;;;;;;4949242;29;20194;-84
2022/03/02 00:30:59;;;;;;;24.08;16.63;;;2.00;72.00;;;;;;4947714;29;20207;-83
2022/03/02 00:33:26;;;;;;;26.17;18.27;;;2.10;71.80;;;;;;4948660;29;20206;-84
2022/03/02 00:35:53;;;;;;;25.05;16.48;;;2.20;71.40;;;;;;4950821;29;20203;-84
2022/03/02 00:38:20;;;;;;;22.17;16.95;;;2.30;71.30;;;;;;4946875;29;20289;-85
2022/03/02 00:40:47;;;;;;;25.30;17.30;;;2.30;71.10;;;;;;4948535;29;20553;-84
2022/03/02 00:43:15;;;;;;;28.77;17.88;;;2.30;71.60;;;;;;4949924;29;20202;-85
2022/03/02 00:45:42;;;;;;;20.50;17.20;;;2.40;70.70;;;;;;4955676;29;20230;-84
2022/03/02 00:48:09;;;;;;;24.60;18.02;;;2.40;70.30;;;;;;4952800;28;20205;-83
2022/03/02 00:50:36;;;;;;;27.73;17.25;;;2.40;70.60;;;;;;4949350;29;20206;-85
2022/03/02 00:53:07;;;;;;;22.65;17.58;;;2.40;70.50;;;;;;4946449;29;20199;-84
2022/03/02 00:55:34;;;;;;;22.55;16.17;;;2.40;70.50;;;;;;4945068;29;20229;-84
2022/03/02 00:58:02;;;;;;;20.20;16.73;;;2.40;70.50;;;;;;4947179;29;20227;-84
2022/03/02 01:00:30;;;;;;;19.25;16.48;;;2.50;70.30;;;;;;4945364;29;20210;-85
2022/03/02 01:02:57;;;;;;;23.17;17.60;;;2.50;70.10;;;;;;4946299;29;20301;-84
2022/03/02 01:05:24;;;;;;;25.00;18.38;;;2.50;70.10;;;;;;4957760;28;20223;-83
2022/03/02 01:07:51;;;;;;;18.67;16.20;;;2.60;70.10;;;;;;4952189;29;20211;-85
2022/03/02 01:10:19;;;;;;;25.42;18.45;;;2.50;69.80;;;;;;4940513;29;20630;-83
2022/03/02 01:12:45;;;;;;;20.08;15.90;;;2.50;70.00;;;;;;4939181;29;20211;-82
2022/03/02 01:15:13;;;;;;;24.75;17.00;;;2.50;70.20;;;;;;4939247;29;20226;-83
2022/03/02 01:17:42;;;;;;;23.55;16.63;;;2.40;70.30;;;;;;4944330;29;20285;-83
2022/03/02 01:20:10;;;;;;;21.00;16.23;;;2.40;70.80;;;;;;4945776;29;20198;-86
2022/03/02 01:22:38;;;;;;;21.23;16.80;;;2.40;70.90;;;;;;4950598;29;20197;-83
2022/03/02 01:25:07;;;;;;;23.35;16.75;;;2.30;70.90;;;;;;4949873;29;20218;-82
2022/03/02 01:27:33;;;;;;;23.65;17.42;;;2.20;71.60;;;;;;4944939;29;20261;-83
2022/03/02 01:30:00;;;;;;;22.60;17.20;;;2.20;71.90;;;;;;4952482;29;20202;-81
2022/03/02 01:32:27;;;;;;;23.20;16.38;;;2.10;71.90;;;;;;4958316;29;20206;-82
2022/03/02 01:34:55;;;;;;;24.10;16.92;;;2.10;72.20;;;;;;4961422;28;20198;-80
2022/03/02 01:37:21;;;;;;;20.75;16.15;;;2.00;72.90;;;;;;4955508;29;20222;-83
2022/03/02 01:39:48;;;;;;;24.58;18.70;;;2.10;73.40;;;;;;4947707;29;20209;-83
2022/03/02 01:42:15;;;;;;;24.23;17.40;;;2.10;73.10;;;;;;4952104;29;20211;-83
2022/03/02 01:44:42;;;;;;;21.88;17.80;;;2.10;73.20;;;;;;4962291;29;20224;-82
2022/03/02 01:47:09;;;;;;;20.92;15.07;;;2.10;73.50;;;;;;4962020;29;20190;-81
2022/03/02 01:49:36;;;;;;;26.15;17.30;;;2.10;73.30;;;;;;4955810;29;20202;-83
2022/03/02 01:52:04;;;;;;;20.52;16.98;;;2.00;73.60;;;;;;4959647;29;20206;-80
2022/03/02 01:54:31;;;;;;;20.20;17.00;;;2.00;74.20;;;;;;4948927;29;20226;-83
2022/03/02 01:56:58;;;;;;;25.63;17.73;;;2.00;74.70;;;;;;4944144;29;20214;-83
2022/03/02 01:59:25;;;;;;;23.73;17.50;;;1.90;74.60;;;;;;4951190;28;20199;-81
2022/03/02 02:01:52;;;;;;;24.50;18.20;;;1.90;74.80;;;;;;4962536;28;20226;-81
2022/03/02 02:04:18;;;;;;;22.90;17.98;;;1.90;74.80;;;;;;4951648;28;20232;-82
2022/03/02 02:06:45;;;;;;;28.75;18.20;;;1.80;74.90;;;;;;4955612;29;20222;-82
2022/03/02 02:09:13;;;;;;;21.58;16.15;;;1.70;74.90;;;;;;4949963;29;20198;-83
2022/03/02 02:11:40;;;;;;;25.13;18.48;;;1.70;75.20;;;;;;4946718;29;20213;-84
2022/03/02 02:14:07;;;;;;;23.98;17.38;;;1.60;75.20;;;;;;4945545;29;20233;-84
2022/03/02 02:16:34;;;;;;;24.63;17.35;;;1.60;75.60;;;;;;4944867;29;20202;-84
2022/03/02 02:19:01;;;;;;;24.67;17.92;;;1.60;76.00;;;;;;4942871;29;20228;-84
2022/03/02 02:21:30;;;;;;;25.88;19.60;;;1.50;76.70;;;;;;4945007;29;20206;-82
2022/03/02 02:23:57;;;;;;;29.67;18.20;;;1.50;77.20;;;;;;4949307;29;20306;-83
2022/03/02 02:26:25;;;;;;;22.80;17.58;;;1.60;77.20;;;;;;4942254;29;20243;-84
2022/03/02 02:28:52;;;;;;;26.83;18.02;;;1.70;77.30;;;;;;4957434;29;20198;-87
2022/03/02 02:31:19;;;;;;;26.08;17.05;;;1.60;76.90;;;;;;4949059;29;20210;-84
2022/03/02 02:33:46;;;;;;;23.83;17.67;;;1.50;77.30;;;;;;4942827;29;20245;-84
2022/03/02 02:36:13;;;;;;;28.23;17.85;;;1.50;78.10;;;;;;4943886;29;20211;-85
2022/03/02 02:38:42;;;;;;;25.10;17.63;;;1.40;78.00;;;;;;4946862;29;20212;-84
2022/03/02 02:41:09;;;;;;;24.42;16.08;;;1.40;78.00;;;;;;4935009;29;20241;-85
2022/03/02 02:43:37;;;;;;;27.95;20.45;;;1.40;78.20;;;;;;4941928;29;20202;-84
2022/03/02 02:46:04;;;;;;;30.02;18.90;;;1.50;78.60;;;;;;4942945;29;20206;-85
2022/03/02 02:48:30;;;;;;;28.65;19.23;;;1.50;78.60;;;;;;4943013;29;20205;-82
2022/03/02 02:50:57;;;;;;;19.90;17.10;;;1.40;78.40;;;;;;4942070;29;20214;-82
2022/03/02 02:53:24;;;;;;;24.60;16.85;;;1.50;78.00;;;;;;4942795;29;20627;-83
2022/03/02 02:55:53;;;;;;;23.10;16.10;;;1.40;77.10;;;;;;4942567;29;20205;-84
2022/03/02 02:58:20;;;;;;;21.88;15.90;;;1.40;77.00;;;;;;4941868;29;20210;-82
2022/03/02 03:00:49;;;;;;;25.67;16.10;;;1.40;76.80;;;;;;4941237;29;20210;-83
2022/03/02 03:03:17;;;;;;;23.13;15.45;;;1.40;76.90;;;;;;4940981;29;20289;-83
2022/03/02 03:05:45;;;;;;;26.58;16.75;;;1.30;77.10;;;;;;4940989;29;20232;-82
2022/03/02 03:08:13;;;;;;;20.73;16.77;;;1.30;77.20;;;;;;4940779;29;20696;-82
2022/03/02 03:10:42;;;;;;;20.02;14.82;;;1.30;77.60;;;;;;4941357;29;20210;-82
2022/03/02 03:13:10;;;;;;;25.38;16.90;;;1.40;77.70;;;;;;4940257;29;20206;-83
2022/03/02 03:15:38;;;;;;;26.58;18.63;;;1.40;77.90;;;;;;4949109;29;20234;-83
2022/03/02 03:18:06;;;;;;;22.23;18.10;;;1.40;77.90;;;;;;4958561;29;20457;-83
2022/03/02 03:20:34;;;;;;;23.20;16.83;;;1.30;78.00;;;;;;4959043;29;20204;-82
2022/03/02 03:23:01;;;;;;;25.60;17.25;;;1.30;78.50;;;;;;4950463;28;20202;-84
2022/03/02 03:25:29;;;;;;;22.60;17.15;;;1.20;79.00;;;;;;4942711;29;20226;-83
2022/03/02 03:27:56;;;;;;;25.73;17.00;;;1.20;79.50;;;;;;4942303;29;20269;-84
2022/03/02 03:30:26;;;;;;;22.95;17.63;;;1.10;80.40;;;;;;4946765;29;20287;-83
2022/03/02 03:32:53;;;;;;;21.88;16.52;;;1.10;79.90;;;;;;4939688;29;20581;-83
2022/03/02 03:35:22;;;;;;;22.17;17.48;;;1.10;80.10;;;;;;4953282;29;20254;-83
2022/03/02 03:37:49;;;;;;;22.80;17.73;;;1.10;80.30;;;;;;4953107;29;20245;-82
2022/03/02 03:40:19;;;;;;;23.38;16.13;;;1.10;80.40;;;;;;4944798;29;20326;-83
2022/03/02 03:42:46;;;;;;;24.42;16.70;;;0.90;80.00;;;;;;4953911;29;20228;-81
2022/03/02 03:45:14;;;;;;;21.73;16.27;;;0.90;80.50;;;;;;4933683;29;20253;-82
2022/03/02 03:47:43;;;;;;;22.10;16.35;;;0.90;80.30;;;;;;4937168;29;20199;-83
2022/03/02 03:50:11;;;;;;;20.85;17.25;;;0.90;79.70;;;;;;4943080;29;20217;-83
2022/03/02 03:52:39;;;;;;;19.92;15.02;;;0.90;79.50;;;;;;4941362;29;20206;-83
2022/03/02 03:55:08;;;;;;;20.10;16.33;;;0.80;79.40;;;;;;4941042;29;20241;-84
2022/03/02 03:57:35;;;;;;;21.67;15.90;;;0.90;79.30;;;;;;4940755;29;20265;-83
2022/03/02 04:00:02;;;;;;;18.00;14.82;;;0.90;78.60;;;;;;4940793;29;20206;-83
2022/03/02 04:02:29;;;;;;;19.75;16.35;;;1.00;78.30;;;;;;4940625;29;20205;-84
2022/03/02 04:04:57;;;;;;;20.77;15.63;;;0.90;78.30;;;;;;4940024;29;20420;-84
2022/03/02 04:07:23;;;;;;;22.70;17.30;;;0.90;79.10;;;;;;4942898;29;20210;-83
2022/03/02 04:09:50;;;;;;;23.23;16.75;;;0.80;80.00;;;;;;4947625;29;20201;-82
2022/03/02 04:12:18;;;;;;;24.10;17.48;;;0.70;81.20;;;;;;4956307;28;20194;-84
2022/03/02 04:14:45;;;;;;;21.95;16.77;;;0.70;82.10;;;;;;4959190;23;20233;-88
2022/03/02 04:17:12;;;;;;;24.95;18.75;;;0.60;82.60;;;;;;4945072;29;20199;-87
2022/03/02 04:19:39;;;;;;;23.33;18.50;;;0.70;83.10;;;;;;4933686;29;20648;-88
2022/03/02 04:22:07;;;;;;;26.17;18.38;;;0.60;83.70;;;;;;4935735;29;20225;-87
2022/03/02 04:24:34;;;;;;;27.88;18.65;;;0.50;84.30;;;;;;4934674;29;20218;-87
2022/03/02 04:27:00;;;;;;;21.60;17.65;;;0.40;84.90;;;;;;4929038;29;20203;-87
2022/03/02 04:29:28;;;;;;;24.45;17.48;;;0.30;85.70;;;;;;4917118;29;20203;-87
2022/03/02 04:31:54;;;;;;;24.65;18.35;;;0.30;86.20;;;;;;4948809;29;20202;-89
2022/03/02 04:34:21;;;;;;;24.48;18.27;;;0.20;86.50;;;;;;4940758;29;20222;-87
2022/03/02 04:36:48;;;;;;;25.02;17.80;;;0.30;86.80;;;;;;4937669;29;20306;-87
2022/03/02 04:39:16;;;;;;;25.20;19.83;;;0.30;86.50;;;;;;4937052;29;20236;-87
2022/03/02 04:41:44;;;;;;;22.00;18.15;;;0.40;86.70;;;;;;4928684;29;20203;-87
2022/03/02 04:44:11;;;;;;;28.52;20.27;;;0.40;86.40;;;;;;4944291;29;20213;-87
2022/03/02 04:46:37;;;;;;;24.60;19.33;;;0.50;85.90;;;;;;4944643;29;20197;-87
2022/03/02 04:49:11;;;;;;;26.02;18.05;;;0.50;85.70;;;;;;4958460;29;20194;-88
2022/03/02 04:51:38;;;;;;;23.92;17.33;;;0.60;85.50;;;;;;4942031;29;20217;-87
2022/03/02 04:54:06;;;;;;;27.33;19.10;;;0.50;85.50;;;;;;4928329;29;20247;-87
2022/03/02 04:56:34;;;;;;;27.13;19.55;;;0.50;85.40;;;;;;4938404;29;20202;-86
2022/03/02 04:59:03;;;;;;;23.73;17.30;;;0.40;85.90;;;;;;4939425;29;20225;-87
2022/03/02 05:01:30;;;;;;;27.90;17.48;;;0.40;86.30;;;;;;4947912;29;20216;-88
2022/03/02 05:03:57;;;;;;;23.58;17.58;;;0.40;86.30;;;;;;4925720;29;20214;-87
2022/03/02 05:06:23;;;;;;;22.25;17.10;;;0.40;86.40;;;;;;4923086;29;20260;-87
2022/03/02 05:08:50;;;;;;;24.60;17.73;;;0.50;86.10;;;;;;4943013;29;20205;-86
2022/03/02 05:11:17;;;;;;;25.42;18.73;;;0.60;85.00;;;;;;4950448;29;20220;-86
2022/03/02 05:13:45;;;;;;;35.58;18.10;;;0.60;84.00;;;;;;4939696;29;20245;-87
2022/03/02 05:16:12;;;;;;;27.00;16.38;;;0.60;83.30;;;;;;4923637;29;20242;-87
2022/03/02 05:18:41;;;;;;;21.75;17.27;;;0.60;83.30;;;;;;4923063;29;20230;-87
2022/03/02 05:21:08;;;;;;;26.08;16.73;;;0.60;83.50;;;;;;4921154;29;20221;-88
2022/03/02 05:23:35;;;;;;;20.85;16.60;;;0.50;83.70;;;;;;4930914;29;20202;-86
2022/03/02 05:26:01;;;;;;;22.52;17.70;;;0.40;84.00;;;;;;4939142;29;20316;-87
2022/03/02 05:28:28;;;;;;;21.63;16.67;;;0.40;84.00;;;;;;4937380;29;20217;-87
2022/03/02 05:30:56;;;;;;;19.05;16.05;;;0.40;84.10;;;;;;4939075;29;20195;-86
2022/03/02 05:33:23;;;;;;;24.08;16.80;;;0.40;84.50;;;;;;4937980;29;20229;-87
2022/03/02 05:35:50;;;;;;;21.27;16.45;;;0.60;84.20;;;;;;4938653;29;20233;-87
2022/03/02 05:38:16;;;;;;;20.90;17.70;;;0.60;83.70;;;;;;4924810;29;20214;-87
2022/03/02 05:40:43;;;;;;;20.80;17.48;;;0.60;83.00;;;;;;4919104;29;20209;-87
2022/03/02 05:43:10;;;;;;;30.15;18.48;;;0.60;83.20;;;;;;4921923;29;20242;-87
2022/03/02 05:45:37;;;;;;;32.08;17.90;;;0.60;83.10;;;;;;4924287;29;20241;-87
2022/03/02 05:48:06;;;;;;;21.88;16.75;;;0.60;83.40;;;;;;4921618;29;20550;-87
2022/03/02 05:50:33;;;;;;;25.15;18.05;;;0.60;83.60;;;;;;4920713;29;20227;-87
2022/03/02 05:53:00;;;;;;;22.88;18.17;;;0.60;83.70;;;;;;4929133;29;20206;-87
2022/03/02 05:55:26;;;;;;;27.40;19.77;;;0.60;83.40;;;;;;4924559;29;20229;-87
2022/03/02 05:57:53;;;;;;;25.77;18.02;;;0.60;83.30;;;;;;4931755;29;20206;-87
2022/03/02 06:00:20;;;;;;;23.02;17.95;;;0.60;83.10;;;;;;4924849;29;20218;-88
2022/03/02 06:02:46;;;;;;;24.77;17.50;;;0.70;83.00;;;;;;4938076;29;20203;-87
2022/03/02 06:05:14;;;;;;;22.15;18.58;;;0.70;83.10;;;;;;4939722;29;20257;-86
2022/03/02 06:07:41;;;;;;;28.52;19.48;;;0.70;83.20;;;;;;4950322;28;20206;-88
2022/03/02 06:10:09;;;;;;;23.45;18.40;;;0.70;83.10;;;;;;4937951;29;20202;-86
2022/03/02 06:12:36;;;;;;;26.73;19.30;;;0.70;83.30;;;;;;4926438;29;20207;-87
2022/03/02 06:15:04;;;;;;;28.13;20.75;;;0.70;83.50;;;;;;4919328;29;20230;-86
2022/03/02 06:17:32;;;;;;;26.33;18.77;;;0.80;83.70;;;;;;4919757;29;20230;-86
2022/03/02 06:19:59;;;;;;;25.25;19.77;;;0.80;83.50;;;;;;4927887;29;20230;-87
2022/03/02 06:22:28;;;;;;;28.40;20.55;;;0.80;83.90;;;;;;4937867;29;20214;-87
2022/03/02 06:24:56;;;;;;;26.63;18.30;;;0.80;83.80;;;;;;4936204;29;20285;-87
2022/03/02 06:27:22;;;;;;;32.70;19.65;;;0.80;83.90;;;;;;4922858;29;20205;-86
2022/03/02 06:29:49;;;;;;;25.77;18.33;;;0.80;84.10;;;;;;4923926;29;20207;-87
2022/03/02 06:32:16;;;;;;;32.63;20.75;;;0.80;84.40;;;;;;4931768;29;20212;-86
2022/03/02 06:34:43;;;;;;;34.78;20.45;;;0.90;84.20;;;;;;4921410;29;20227;-87
2022/03/02 06:37:09;;;;;;;24.77;19.55;;;0.90;84.20;;;;;;4945094;29;20198;-87
2022/03/02 06:39:37;;;;;;;25.45;19.20;;;0.90;84.10;;;;;;4944111;29;20242;-87
2022/03/02 06:42:15;;;;;;;26.98;20.15;;;1.00;83.80;;;;;;4926279;29;20201;-87
2022/03/02 06:44:49;;;;;;;30.65;17.83;;;1.10;83.60;;;;;;4927130;29;20217;-88
2022/03/02 06:47:19;;;;;;;24.27;19.60;;;1.20;83.20;;;;;;4920481;29;20198;-88
2022/03/02 06:49:59;;;;;;;29.25;19.45;;;1.30;82.00;;;;;;4934935;29;20195;-87
2022/03/02 06:52:32;;;;;;;32.17;22.70;;;1.30;81.70;;;;;;4924523;29;20213;-88
2022/03/02 06:55:44;;;;;;;25.55;19.55;;;1.30;81.40;;;;;;4938228;29;20222;-87
2022/03/02 06:58:14;;;;;;;29.38;18.58;;;1.40;81.60;;;;;;4953007;28;20186;-88
2022/03/02 07:00:52;;;;;;;33.22;20.13;;;1.40;81.80;;;;;;4955801;28;20198;-87
2022/03/02 07:03:20;;;;;;;29.88;19.30;;;1.50;81.50;;;;;;4931255;29;20195;-87
2022/03/02 07:05:47;;;;;;;29.40;19.42;;;1.50;81.20;;;;;;4936409;29;20245;-86
2022/03/02 07:08:31;;;;;;;29.33;19.33;;;1.50;80.70;;;;;;4958173;29;20318;-88
2022/03/02 07:11:00;;;;;;;26.30;18.85;;;1.50;80.90;;;;;;4947511;29;20215;-89
2022/03/02 07:13:29;;;;;;;32.13;19.88;;;1.50;80.70;;;;;;4949120;28;20300;-88
2022/03/02 07:15:56;;;;;;;27.17;19.67;;;1.60;80.50;;;;;;4958730;28;20282;-88
2022/03/02 07:18:22;;;;;;;28.73;19.77;;;1.80;80.20;;;;;;4949588;28;20233;-88
2022/03/02 07:20:53;;;;;;;24.73;19.63;;;1.90;79.70;;;;;;4936766;29;20227;-88
2022/03/02 07:23:21;;;;;;;25.67;20.08;;;2.00;79.60;;;;;;4919266;29;20613;-88
2022/03/02 07:25:49;;;;;;;26.00;19.50;;;2.10;79.10;;;;;;4919569;29;20267;-88
2022/03/02 07:28:16;;;;;;;24.33;20.25;;;2.10;78.90;;;;;;4934655;29;20211;-88
2022/03/02 07:30:46;;;;;;;33.70;21.38;;;2.20;78.90;;;;;;4950851;29;20206;-88
2022/03/02 07:33:15;;;;;;;27.50;20.05;;;2.20;77.90;;;;;;4933810;29;20199;-88
2022/03/02 07:35:47;;;;;;;30.92;19.40;;;2.30;78.00;;;;;;4940521;29;20250;-87
2022/03/02 07:38:14;;;;;;;28.10;20.05;;;2.30;77.10;;;;;;4941407;29;20293;-88
2022/03/02 07:40:40;;;;;;;24.08;20.10;;;2.40;77.40;;;;;;4939105;29;20718;-88
2022/03/02 07:43:07;;;;;;;31.50;21.42;;;2.50;77.40;;;;;;4938514;29;20198;-88
2022/03/02 07:45:34;;;;;;;29.23;20.73;;;2.60;76.70;;;;;;4937363;29;20602;-87
2022/03/02 07:48:02;;;;;;;27.67;20.30;;;2.50;76.40;;;;;;4936976;29;20206;-87
2022/03/02 07:50:29;;;;;;;29.80;20.83;;;2.50;76.20;;;;;;4955658;29;20205;-88
2022/03/02 07:52:56;;;;;;;24.75;18.45;;;2.50;76.20;;;;;;4955490;29;20213;-88
2022/03/02 07:55:24;;;;;;;33.30;22.02;;;2.50;76.70;;;;;;4939397;29;20222;-88
2022/03/02 07:57:55;;;;;;;29.27;20.08;;;2.50;76.40;;;;;;4921361;29;20210;-88
2022/03/02 08:00:22;;;;;;;22.67;19.00;;;2.60;76.30;;;;;;4934473;29;20218;-88
2022/03/02 08:02:52;;;;;;;27.00;17.83;;;2.80;75.90;;;;;;4928262;29;20202;-88
2022/03/02 08:05:23;;;;;;;24.73;18.90;;;2.80;74.80;;;;;;4935663;29;20249;-87
2022/03/02 08:07:50;;;;;;;24.30;18.10;;;2.90;74.30;;;;;;4935950;29;20208;-87
2022/03/02 08:10:18;;;;;;;30.45;20.95;;;3.00;74.40;;;;;;4939017;29;20224;-87
2022/03/02 08:12:45;;;;;;;22.55;18.00;;;3.20;74.20;;;;;;4921451;29;20203;-87
2022/03/02 08:15:13;;;;;;;26.42;16.95;;;3.50;73.80;;;;;;4935741;29;20236;-87
2022/03/02 08:17:39;;;;;;;25.77;17.52;;;3.70;72.50;;;;;;4937194;29;20206;-87
2022/03/02 08:20:07;;;;;;;23.65;18.05;;;3.90;71.80;;;;;;4935344;29;20600;-87
2022/03/02 08:22:38;;;;;;;23.75;18.65;;;4.10;70.70;;;;;;4935364;29;20213;-87
2022/03/02 08:25:10;;;;;;;22.27;16.58;;;4.20;69.70;;;;;;4918092;29;20292;-87
2022/03/02 08:27:39;;;;;;;21.65;16.33;;;4.40;68.90;;;;;;4941440;29;20195;-87
2022/03/02 08:30:07;;;;;;;23.13;16.90;;;4.60;67.90;;;;;;4929571;29;20268;-87
2022/03/02 08:32:37;;;;;;;27.38;17.73;;;4.70;67.20;;;;;;4917112;29;20203;-87
2022/03/02 08:35:05;;;;;;;21.92;17.40;;;4.70;66.00;;;;;;4925973;29;20228;-87
2022/03/02 08:37:34;;;;;;;26.80;18.20;;;4.60;66.10;;;;;;4922181;29;20210;-87
2022/03/02 08:40:02;;;;;;;26.20;19.50;;;4.90;66.90;;;;;;4935848;29;20513;-87
2022/03/02 08:42:29;;;;;;;24.65;19.00;;;5.10;65.60;;;;;;4934516;29;20534;-87
2022/03/02 08:44:56;;;;;;;23.80;18.67;;;5.20;65.10;;;;;;4927661;29;20221;-87
2022/03/02 08:47:23;;;;;;;30.02;20.58;;;5.30;64.60;;;;;;4916143;29;20964;-87
2022/03/02 08:49:50;;;;;;;29.50;17.20;;;5.40;64.10;;;;;;4932306;29;20254;-87
2022/03/02 08:52:21;;;;;;;22.37;17.83;;;5.60;63.20;;;;;;4921725;29;21135;-87
2022/03/02 08:54:49;;;;;;;26.60;18.20;;;5.60;62.40;;;;;;4924511;29;20475;-88
2022/03/02 08:57:16;;;;;;;25.40;19.73;;;5.90;62.00;;;;;;4935183;29;20460;-87
2022/03/02 08:59:44;;;;;;;22.07;17.27;;;6.10;61.30;;;;;;4933451;29;20492;-87
2022/03/02 09:02:11;;;;;;;22.10;18.33;;;6.30;60.50;;;;;;4915988;29;20461;-87
2022/03/02 09:04:39;;;;;;;22.30;16.40;;;6.60;60.60;;;;;;4924710;29;20469;-87
2022/03/02 09:07:06;;;;;;;24.03;19.17;;;6.80;59.00;;;;;;4935517;29;20441;-86
2022/03/02 09:09:33;;;;;;;30.20;19.53;;;6.80;59.30;;;;;;4936012;29;20455;-87
2022/03/02 09:12:02;;;;;;;22.83;18.23;;;7.10;58.50;;;;;;4916015;29;20464;-87
2022/03/02 09:14:29;;;;;;;26.13;17.10;;;7.30;57.50;;;;;;4923582;29;20556;-87
2022/03/02 09:16:56;;;;;;;21.70;18.03;;;7.60;57.10;;;;;;4935285;29;20460;-88
2022/03/02 09:19:23;;;;;;;21.80;16.90;;;7.80;56.20;;;;;;4920923;29;20500;-87
2022/03/02 09:21:51;;;;;;;19.07;14.73;;;7.60;55.30;;;;;;4916966;29;20443;-87
2022/03/02 09:24:19;;;;;;;22.03;15.90;;;7.80;55.00;;;;;;4925277;29;20489;-87
2022/03/02 09:26:46;;;;;;;19.10;16.37;;;8.10;54.60;;;;;;4949695;29;20449;-87
2022/03/02 09:29:17;;;;;;;18.80;15.77;;;8.50;54.20;;;;;;4944208;29;20454;-87
2022/03/02 09:31:49;;;;;;;17.60;15.53;;;8.30;53.00;;;;;;4940777;29;20520;-87
2022/03/02 09:34:16;;;;;;;18.27;16.37;;;8.00;53.70;;;;;;4932902;29;20496;-87
2022/03/02 09:36:44;;;;;;;17.73;15.93;;;7.90;53.50;;;;;;4935478;29;20434;-87
2022/03/02 09:39:11;;;;;;;20.53;15.63;;;8.00;54.30;;;;;;4926329;29;20485;-88
2022/03/02 09:41:48;;;;;;;17.03;14.40;;;7.90;53.80;;;;;;4931627;29;20447;-87
2022/03/02 09:44:19;;;;;;;17.80;13.43;;;7.70;54.10;;;;;;4928504;29;20990;-88
2022/03/02 09:46:55;;;;;;;22.83;16.20;;;7.80;54.00;;;;;;4959878;29;20483;-87
2022/03/02 09:49:23;;;;;;;19.23;16.60;;;8.30;53.40;;;;;;4953647;29;20485;-87
2022/03/02 09:51:53;;;;;;;18.37;16.50;;;8.90;52.60;;;;;;4936003;29;20455;-87
2022/03/02 09:54:23;;;;;;;21.20;15.80;;;9.40;52.50;;;;;;4921707;29;20480;-88
2022/03/02 09:56:50;;;;;;;16.10;14.50;;;9.60;51.40;;;;;;4938960;29;20449;-88
2022/03/02 09:59:19;;;;;;;20.43;16.60;;;9.10;51.30;;;;;;4932822;29;20507;-88
2022/03/02 10:01:48;;;;;;;19.17;17.10;;;9.40;51.20;;;;;;4928967;29;20446;-87
2022/03/02 10:04:21;;;;;;;21.83;15.67;;;9.50;51.10;;;;;;4919647;29;21005;-87
2022/03/02 10:06:50;;;;;;;19.03;15.43;;;9.60;51.00;;;;;;4919552;29;20474;-87
2022/03/02 10:09:21;;;;;;;17.53;15.10;;;9.40;50.70;;;;;;4920949;29;20454;-87
2022/03/02 10:11:50;;;;;;;20.20;16.40;;;9.50;51.10;;;;;;4928262;29;20489;-87
2022/03/02 10:14:20;;;;;;;28.20;15.10;;;9.70;50.90;;;;;;4921550;29;20510;-88
2022/03/02 10:16:48;;;;;;;15.50;13.87;;;10.90;49.40;;;;;;4968990;23;20530;-86
2022/03/02 10:19:23;;;;;;;16.80;15.20;;;10.90;46.90;;;;;;4946309;29;20456;-85
2022/03/02 10:22:04;;;;;;;17.83;15.90;;;10.90;47.40;;;;;;4946985;29;20441;-85
2022/03/02 10:24:33;;;;;;;16.73;15.13;;;12.30;47.30;;;;;;4950592;29;20936;-87
2022/03/02 10:27:07;;;;;;;18.10;16.17;;;14.30;44.30;;;;;;4944176;29;20512;-86
2022/03/02 10:29:57;;;;;;;21.40;19.10;;;15.90;41.50;;;;;;4937578;29;20466;-86
2022/03/02 10:32:25;;;;;;;19.00;17.00;;;15.00;39.60;;;;;;4929273;29;20451;-85
2022/03/02 10:34:56;;;;;;;21.60;17.70;;;14.30;40.90;;;;;;4923017;29;20463;-86
2022/03/02 10:37:34;;;;;;;17.50;15.20;;;13.30;41.60;;;;;;4921533;29;20463;-87
2022/03/02 10:40:15;;;;;;;18.43;15.43;;;12.60;43.40;;;;;;4924960;29;20872;-86
2022/03/02 10:42:45;;;;;;;18.17;16.27;;;12.20;43.70;;;;;;4929323;29;20450;-85
2022/03/02 10:45:19;;;;;;;19.70;17.80;;;11.90;44.90;;;;;;4927553;29;20458;-86
2022/03/02 10:47:58;;;;;;;20.97;16.70;;;10.90;45.00;;;;;;4935829;29;20451;-86
2022/03/02 10:50:27;;;;;;;16.77;14.90;;;10.30;46.90;;;;;;4933065;29;20454;-86
2022/03/02 10:52:56;;;;;;;21.20;16.80;;;10.10;47.30;;;;;;4934402;29;20454;-86
2022/03/02 10:55:24;;;;;;;20.03;17.90;;;10.00;48.00;;;;;;4944741;29;20473;-87
2022/03/02 10:57:52;;;;;;;26.33;17.57;;;9.70;49.10;;;;;;4945403;29;20454;-85
2022/03/02 11:00:22;;;;;;;19.50;17.40;;;9.80;49.40;;;;;;4941694;29;20490;-86
2022/03/02 11:02:51;;;;;;;21.60;15.83;;;10.10;48.60;;;;;;4952896;29;20453;-86
2022/03/02 11:05:19;;;;;;;20.03;16.93;;;9.90;49.00;;;;;;4944733;29;20474;-86
2022/03/02 11:07:47;;;;;;;22.67;17.57;;;10.10;48.30;;;;;;4932624;29;20466;-86
2022/03/02 11:10:16;;;;;;;20.73;16.40;;;10.40;48.40;;;;;;4936131;29;20465;-86
2022/03/02 11:12:45;;;;;;;24.70;16.90;;;10.30;48.00;;;;;;4925814;29;20866;-86
2022/03/02 11:15:14;;;;;;;18.67;16.77;;;10.00;48.40;;;;;;4922434;29;20451;-86
2022/03/02 11:17:52;;;;;;;21.63;17.30;;;10.10;48.80;;;;;;4931864;29;20457;-86
2022/03/02 11:20:20;;;;;;;25.47;18.07;;;10.20;48.90;;;;;;4943450;29;20478;-86
2022/03/02 11:22:52;;;;;;;17.93;15.50;;;10.10;48.60;;;;;;4930327;29;21024;-87
2022/03/02 11:25:19;;;;;;;23.37;17.30;;;9.90;49.60;;;;;;4928678;29;20466;-85
2022/03/02 11:27:46;;;;;;;20.50;15.40;;;9.90;49.80;;;;;;4935693;29;20454;-84
2022/03/02 11:30:16;;;;;;;20.17;17.50;;;10.20;49.20;;;;;;4954322;28;20575;-88
2022/03/02 11:32:46;;;;;;;19.97;17.37;;;10.40;48.90;;;;;;4944853;28;20446;-86
2022/03/02 11:35:19;;;;;;;19.53;16.67;;;11.00;48.80;;;;;;4907087;29;20454;-85
2022/03/02 11:37:57;;;;;;;18.00;15.10;;;11.50;47.70;;;;;;4923975;29;20819;-85
2022/03/02 11:40:39;;;;;;;18.80;16.80;;;11.80;46.10;;;;;;4925815;29;20996;-86
2022/03/02 11:43:13;;;;;;;18.30;15.80;;;12.20;45.40;;;;;;4936717;29;20450;-85
2022/03/02 11:45:40;;;;;;;17.37;14.97;;;12.50;44.10;;;;;;4937308;29;20454;-88
2022/03/02 11:48:11;;;;;;;16.50;14.50;;;13.00;43.20;;;;;;4937236;29;20463;-86
2022/03/02 11:50:59;;;;;;;17.87;16.07;;;13.10;42.60;;;;;;4931658;29;20969;-86
2022/03/02 11:53:31;;;;;;;19.00;14.60;;;13.40;42.60;;;;;;4939652;29;20477;-86
2022/03/02 11:55:59;;;;;;;19.60;15.87;;;13.50;42.20;;;;;;4938624;29;20475;-87
2022/03/02 11:58:26;;;;;;;18.43;16.57;;;14.10;42.40;;;;;;4924162;29;20514;-86
2022/03/02 12:00:58;;;;;;;18.07;16.07;;;14.50;41.70;;;;;;4938568;29;20496;-86
2022/03/02 12:03:24;;;;;;;19.07;16.33;;;14.90;40.90;;;;;;4936940;29;20866;-86
2022/03/02 12:06:05;;;;;;;18.00;15.50;;;15.30;40.40;;;;;;4937849;29;20487;-86
2022/03/02 12:08:34;;;;;;;20.57;15.60;;;15.10;39.60;;;;;;4926181;29;20982;-86
2022/03/02 12:11:02;;;;;;;17.67;15.17;;;14.60;39.90;;;;;;4940450;29;20447;-89
2022/03/02 12:13:29;;;;;;;18.33;16.43;;;14.20;40.50;;;;;;4940532;29;20455;-86
2022/03/02 12:15:56;;;;;;;17.83;16.07;;;14.30;41.00;;;;;;4939910;29;20484;-88
2022/03/02 12:18:24;;;;;;;16.47;14.87;;;14.10;41.50;;;;;;4938797;29;20451;-88
2022/03/02 12:20:54;;;;;;;17.00;15.40;;;14.30;41.50;;;;;;4923829;29;20987;-87
2022/03/02 12:23:22;;;;;;;17.43;15.70;;;14.70;41.10;;;;;;4923267;29;20433;-86
2022/03/02 12:25:50;;;;;;;16.77;15.17;;;15.30;41.00;;;;;;4923313;29;20472;-86
2022/03/02 12:28:18;;;;;;;17.30;15.50;;;16.50;39.80;;;;;;4924598;29;20446;-87
2022/03/02 12:30:44;;;;;;;17.80;15.80;;;17.70;38.30;;;;;;4921476;29;20462;-86
2022/03/02 12:33:11;;;;;;;18.13;16.27;;;17.80;37.10;;;;;;4921159;29;20450;-86
2022/03/02 12:35:38;;;;;;;17.77;15.93;;;17.50;37.00;;;;;;4938707;29;20984;-86
2022/03/02 12:38:09;;;;;;;18.20;16.30;;;17.00;37.20;;;;;;4940407;29;20932;-86
2022/03/02 12:40:40;;;;;;;17.00;15.20;;;16.50;37.70;;;;;;4931138;29;20482;-87
2022/03/02 12:43:08;;;;;;;16.97;15.37;;;16.00;37.80;;;;;;4921139;29;20526;-86